sensor_id;sensor_type;location;lat;lon;timestamp;P1;P2;P0
57884;PMS5003;43703;51.060;-0.086;2023-04-25T00:00:03;9;9;
57884;PMS5003;43703;51.060;-0.086;2023-04-25T00:02:28;13;11;
57884;PMS5003;43703;51.060;-0.086;2023-04-25T00:04:53;12;9;
57884;PMS5003;43703;51.060;-0.086;2023-04-25T00:07:18;9;9;
57884;PMS5003;43703;51.060;-0.086;2023-04-25T00:09:44;10;9;
57884;PMS5003;43703;51.060;-0.086;2023-04-25T00:12:09;11;10;
57884;PMS5003;43703;51.060;-0.086;2023-04-25T00:14:34;13;12;
57884;PMS5003;43703;51.060;-0.086;2023-04-25T00:17:00;11;9;
57884;PMS5003;43703;51.060;-0.086;2023-04-25T00:19:25;9;8;
57884;PMS5003;43703;51.060;-0.086;2023-04-25T00:21:50;12;11;
57884;PMS5003;43703;51.060;-0.086;2023-04-25T00:24:16;10;9;
57884;PMS5003;43703;51.060;-0.086;2023-04-25T00:26:41;13;12;
57884;PMS5003;43703;51.060;-0.086;2023-04-25T00:29:06;10;8;
57884;PMS5003;43703;51.060;-0.086;2023-04-25T00:31:31;12;9;
57884;PMS5003;43703;51.060;-0.086;2023-04-25T00:33:57;13;12;
57884;PMS5003;43703;51.060;-0.086;2023-04-25T00:36:22;14;11;
57884;PMS5003;43703;51.060;-0.086;2023-04-25T00:38:49;7;7;
57884;PMS5003;43703;51.060;-0.086;2023-04-25T00:41:14;8;7;
57884;PMS5003;43703;51.060;-0.086;2023-04-25T00:43:39;9;9;
57884;PMS5003;43703;51.060;-0.086;2023-04-25T00:46:06;10;9;
57884;PMS5003;43703;51.060;-0.086;2023-04-25T00:48:29;11;9;
57884;PMS5003;43703;51.060;-0.086;2023-04-25T00:50:55;9;8;
57884;PMS5003;43703;51.060;-0.086;2023-04-25T00:53:20;13;10;
57884;PMS5003;43703;51.060;-0.086;2023-04-25T00:55:46;13;12;
57884;PMS5003;43703;51.060;-0.086;2023-04-25T00:58:11;9;9;
57884;PMS5003;43703;51.060;-0.086;2023-04-25T01:00:37;10;9;
57884;PMS5003;43703;51.060;-0.086;2023-04-25T01:03:01;13;10;
57884;PMS5003;43703;51.060;-0.086;2023-04-25T01:05:27;10;9;
57884;PMS5003;43703;51.060;-0.086;2023-04-25T01:07:52;15;10;
57884;PMS5003;43703;51.060;-0.086;2023-04-25T01:10:17;11;10;
57884;PMS5003;43703;51.060;-0.086;2023-04-25T01:12:43;11;10;
57884;PMS5003;43703;51.060;-0.086;2023-04-25T01:15:09;9;9;
57884;PMS5003;43703;51.060;-0.086;2023-04-25T01:17:34;10;10;
57884;PMS5003;43703;51.060;-0.086;2023-04-25T01:19:59;9;7;
57884;PMS5003;43703;51.060;-0.086;2023-04-25T01:22:24;9;8;
57884;PMS5003;43703;51.060;-0.086;2023-04-25T01:24:49;9;8;
57884;PMS5003;43703;51.060;-0.086;2023-04-25T01:27:15;9;9;
57884;PMS5003;43703;51.060;-0.086;2023-04-25T01:29:40;10;7;
57884;PMS5003;43703;51.060;-0.086;2023-04-25T01:32:05;11;8;
57884;PMS5003;43703;51.060;-0.086;2023-04-25T01:34:31;9;6;
57884;PMS5003;43703;51.060;-0.086;2023-04-25T01:36:56;9;9;
57884;PMS5003;43703;51.060;-0.086;2023-04-25T01:39:22;9;9;
57884;PMS5003;43703;51.060;-0.086;2023-04-25T01:41:47;8;8;
57884;PMS5003;43703;51.060;-0.086;2023-04-25T01:44:12;6;6;
57884;PMS5003;43703;51.060;-0.086;2023-04-25T01:46:37;7;7;
57884;PMS5003;43703;51.060;-0.086;2023-04-25T01:49:02;8;5;
57884;PMS5003;43703;51.060;-0.086;2023-04-25T01:51:27;12;11;
57884;PMS5003;43703;51.060;-0.086;2023-04-25T01:53:53;10;5;
57884;PMS5003;43703;51.060;-0.086;2023-04-25T01:56:18;7;7;
57884;PMS5003;43703;51.060;-0.086;2023-04-25T01:58:45;10;8;
57884;PMS5003;43703;51.060;-0.086;2023-04-25T02:01:09;7;7;
57884;PMS5003;43703;51.060;-0.086;2023-04-25T02:03:36;5;5;
57884;PMS5003;43703;51.060;-0.086;2023-04-25T02:05:59;8;7;
57884;PMS5003;43703;51.060;-0.086;2023-04-25T02:08:25;11;9;
57884;PMS5003;43703;51.060;-0.086;2023-04-25T02:10:50;9;9;
57884;PMS5003;43703;51.060;-0.086;2023-04-25T02:13:15;8;6;
57884;PMS5003;43703;51.060;-0.086;2023-04-25T02:15:41;12;9;
57884;PMS5003;43703;51.060;-0.086;2023-04-25T02:18:06;9;7;
57884;PMS5003;43703;51.060;-0.086;2023-04-25T02:20:32;10;9;
57884;PMS5003;43703;51.060;-0.086;2023-04-25T02:22:57;8;8;
57884;PMS5003;43703;51.060;-0.086;2023-04-25T02:25:22;6;6;
57884;PMS5003;43703;51.060;-0.086;2023-04-25T02:27:50;7;5;
57884;PMS5003;43703;51.060;-0.086;2023-04-25T02:30:13;11;8;
57884;PMS5003;43703;51.060;-0.086;2023-04-25T02:32:39;7;6;
57884;PMS5003;43703;51.060;-0.086;2023-04-25T02:35:04;8;7;
57884;PMS5003;43703;51.060;-0.086;2023-04-25T02:37:29;5;5;
57884;PMS5003;43703;51.060;-0.086;2023-04-25T02:39:54;4;4;
57884;PMS5003;43703;51.060;-0.086;2023-04-25T02:42:19;11;7;
57884;PMS5003;43703;51.060;-0.086;2023-04-25T02:44:45;8;7;
57884;PMS5003;43703;51.060;-0.086;2023-04-25T02:47:10;6;5;
57884;PMS5003;43703;51.060;-0.086;2023-04-25T02:49:35;10;8;
57884;PMS5003;43703;51.060;-0.086;2023-04-25T02:52:00;8;5;
57884;PMS5003;43703;51.060;-0.086;2023-04-25T02:54:26;5;5;
57884;PMS5003;43703;51.060;-0.086;2023-04-25T02:56:51;7;4;
57884;PMS5003;43703;51.060;-0.086;2023-04-25T02:59:16;4;4;
57884;PMS5003;43703;51.060;-0.086;2023-04-25T03:01:41;4;4;
57884;PMS5003;43703;51.060;-0.086;2023-04-25T03:04:06;8;7;
57884;PMS5003;43703;51.060;-0.086;2023-04-25T03:06:32;6;6;
57884;PMS5003;43703;51.060;-0.086;2023-04-25T03:08:58;4;4;
57884;PMS5003;43703;51.060;-0.086;2023-04-25T03:11:24;4;4;
57884;PMS5003;43703;51.060;-0.086;2023-04-25T03:13:48;5;5;
57884;PMS5003;43703;51.060;-0.086;2023-04-25T03:16:13;6;5;
57884;PMS5003;43703;51.060;-0.086;2023-04-25T03:18:39;7;6;
57884;PMS5003;43703;51.060;-0.086;2023-04-25T03:21:04;7;4;
57884;PMS5003;43703;51.060;-0.086;2023-04-25T03:23:29;5;3;
57884;PMS5003;43703;51.060;-0.086;2023-04-25T03:25:54;5;5;
57884;PMS5003;43703;51.060;-0.086;2023-04-25T03:28:19;5;5;
57884;PMS5003;43703;51.060;-0.086;2023-04-25T03:30:44;6;6;
57884;PMS5003;43703;51.060;-0.086;2023-04-25T03:33:10;7;5;
57884;PMS5003;43703;51.060;-0.086;2023-04-25T03:35:35;7;5;
57884;PMS5003;43703;51.060;-0.086;2023-04-25T03:38:00;4;4;
57884;PMS5003;43703;51.060;-0.086;2023-04-25T03:40:26;9;7;
57884;PMS5003;43703;51.060;-0.086;2023-04-25T03:42:51;7;7;
57884;PMS5003;43703;51.060;-0.086;2023-04-25T03:45:16;6;6;
57884;PMS5003;43703;51.060;-0.086;2023-04-25T03:47:41;8;6;
57884;PMS5003;43703;51.060;-0.086;2023-04-25T03:50:07;9;6;
57884;PMS5003;43703;51.060;-0.086;2023-04-25T03:52:32;3;3;
57884;PMS5003;43703;51.060;-0.086;2023-04-25T03:54:57;7;6;
57884;PMS5003;43703;51.060;-0.086;2023-04-25T03:57:22;5;5;
57884;PMS5003;43703;51.060;-0.086;2023-04-25T03:59:47;9;9;
57884;PMS5003;43703;51.060;-0.086;2023-04-25T04:02:12;6;6;
57884;PMS5003;43703;51.060;-0.086;2023-04-25T04:04:37;8;8;
57884;PMS5003;43703;51.060;-0.086;2023-04-25T04:07:02;8;6;
57884;PMS5003;43703;51.060;-0.086;2023-04-25T04:09:27;7;6;
57884;PMS5003;43703;51.060;-0.086;2023-04-25T04:11:53;7;6;
57884;PMS5003;43703;51.060;-0.086;2023-04-25T04:14:18;5;5;
57884;PMS5003;43703;51.060;-0.086;2023-04-25T04:16:43;9;8;
57884;PMS5003;43703;51.060;-0.086;2023-04-25T04:19:08;8;5;
57884;PMS5003;43703;51.060;-0.086;2023-04-25T04:21:33;8;7;
57884;PMS5003;43703;51.060;-0.086;2023-04-25T04:23:58;7;5;
57884;PMS5003;43703;51.060;-0.086;2023-04-25T04:26:23;4;4;
57884;PMS5003;43703;51.060;-0.086;2023-04-25T04:28:49;6;6;
57884;PMS5003;43703;51.060;-0.086;2023-04-25T04:31:14;8;7;
57884;PMS5003;43703;51.060;-0.086;2023-04-25T04:33:39;7;6;
57884;PMS5003;43703;51.060;-0.086;2023-04-25T04:36:05;7;7;
57884;PMS5003;43703;51.060;-0.086;2023-04-25T04:38:30;6;6;
57884;PMS5003;43703;51.060;-0.086;2023-04-25T04:40:55;11;8;
57884;PMS5003;43703;51.060;-0.086;2023-04-25T04:43:20;9;8;
57884;PMS5003;43703;51.060;-0.086;2023-04-25T04:45:45;6;6;
57884;PMS5003;43703;51.060;-0.086;2023-04-25T04:48:11;12;11;
57884;PMS5003;43703;51.060;-0.086;2023-04-25T04:50:36;12;11;
57884;PMS5003;43703;51.060;-0.086;2023-04-25T04:53:01;9;9;
57884;PMS5003;43703;51.060;-0.086;2023-04-25T04:55:26;9;7;
57884;PMS5003;43703;51.060;-0.086;2023-04-25T04:57:51;8;7;
57884;PMS5003;43703;51.060;-0.086;2023-04-25T05:00:16;6;6;
57884;PMS5003;43703;51.060;-0.086;2023-04-25T05:02:42;7;7;
57884;PMS5003;43703;51.060;-0.086;2023-04-25T05:05:07;9;7;
57884;PMS5003;43703;51.060;-0.086;2023-04-25T05:07:32;11;8;
57884;PMS5003;43703;51.060;-0.086;2023-04-25T05:09:58;10;7;
57884;PMS5003;43703;51.060;-0.086;2023-04-25T05:12:23;7;7;
57884;PMS5003;43703;51.060;-0.086;2023-04-25T05:14:49;7;6;
57884;PMS5003;43703;51.060;-0.086;2023-04-25T05:17:14;8;7;
57884;PMS5003;43703;51.060;-0.086;2023-04-25T05:19:39;7;5;
57884;PMS5003;43703;51.060;-0.086;2023-04-25T05:22:06;8;8;
57884;PMS5003;43703;51.060;-0.086;2023-04-25T05:24:30;7;6;
57884;PMS5003;43703;51.060;-0.086;2023-04-25T05:26:55;14;11;
57884;PMS5003;43703;51.060;-0.086;2023-04-25T05:29:21;9;7;
57884;PMS5003;43703;51.060;-0.086;2023-04-25T05:31:46;8;6;
57884;PMS5003;43703;51.060;-0.086;2023-04-25T05:34:12;7;6;
57884;PMS5003;43703;51.060;-0.086;2023-04-25T05:36:37;11;9;
57884;PMS5003;43703;51.060;-0.086;2023-04-25T05:39:02;7;6;
57884;PMS5003;43703;51.060;-0.086;2023-04-25T05:41:27;9;7;
57884;PMS5003;43703;51.060;-0.086;2023-04-25T05:43:53;8;8;
57884;PMS5003;43703;51.060;-0.086;2023-04-25T05:46:18;5;5;
57884;PMS5003;43703;51.060;-0.086;2023-04-25T05:48:43;8;8;
57884;PMS5003;43703;51.060;-0.086;2023-04-25T05:51:09;8;8;
57884;PMS5003;43703;51.060;-0.086;2023-04-25T05:53:34;10;9;
57884;PMS5003;43703;51.060;-0.086;2023-04-25T05:55:59;8;8;
57884;PMS5003;43703;51.060;-0.086;2023-04-25T05:58:24;10;9;
57884;PMS5003;43703;51.060;-0.086;2023-04-25T06:00:50;10;9;
57884;PMS5003;43703;51.060;-0.086;2023-04-25T06:03:15;10;9;
57884;PMS5003;43703;51.060;-0.086;2023-04-25T06:05:41;10;8;
57884;PMS5003;43703;51.060;-0.086;2023-04-25T06:08:05;12;11;
57884;PMS5003;43703;51.060;-0.086;2023-04-25T06:10:31;8;6;
57884;PMS5003;43703;51.060;-0.086;2023-04-25T06:12:57;13;11;
57884;PMS5003;43703;51.060;-0.086;2023-04-25T06:15:22;9;7;
57884;PMS5003;43703;51.060;-0.086;2023-04-25T06:17:47;13;8;
57884;PMS5003;43703;51.060;-0.086;2023-04-25T06:20:12;9;9;
57884;PMS5003;43703;51.060;-0.086;2023-04-25T06:22:37;9;7;
57884;PMS5003;43703;51.060;-0.086;2023-04-25T06:25:02;9;9;
57884;PMS5003;43703;51.060;-0.086;2023-04-25T06:27:28;6;6;
57884;PMS5003;43703;51.060;-0.086;2023-04-25T06:29:53;11;9;
57884;PMS5003;43703;51.060;-0.086;2023-04-25T06:32:19;11;7;
57884;PMS5003;43703;51.060;-0.086;2023-04-25T06:34:44;12;10;
57884;PMS5003;43703;51.060;-0.086;2023-04-25T06:37:10;11;11;
57884;PMS5003;43703;51.060;-0.086;2023-04-25T06:39:35;15;14;
57884;PMS5003;43703;51.060;-0.086;2023-04-25T06:42:00;9;9;
57884;PMS5003;43703;51.060;-0.086;2023-04-25T06:44:25;13;11;
57884;PMS5003;43703;51.060;-0.086;2023-04-25T06:46:50;9;9;
57884;PMS5003;43703;51.060;-0.086;2023-04-25T06:49:16;13;11;
57884;PMS5003;43703;51.060;-0.086;2023-04-25T06:51:41;14;13;
57884;PMS5003;43703;51.060;-0.086;2023-04-25T06:54:06;17;17;
57884;PMS5003;43703;51.060;-0.086;2023-04-25T06:56:32;17;17;
57884;PMS5003;43703;51.060;-0.086;2023-04-25T06:58:57;19;18;
57884;PMS5003;43703;51.060;-0.086;2023-04-25T07:01:22;19;17;
57884;PMS5003;43703;51.060;-0.086;2023-04-25T07:03:48;19;16;
57884;PMS5003;43703;51.060;-0.086;2023-04-25T07:06:14;12;12;
57884;PMS5003;43703;51.060;-0.086;2023-04-25T07:08:39;11;10;
57884;PMS5003;43703;51.060;-0.086;2023-04-25T07:11:04;12;12;
57884;PMS5003;43703;51.060;-0.086;2023-04-25T07:13:30;11;11;
57884;PMS5003;43703;51.060;-0.086;2023-04-25T07:15:55;9;9;
57884;PMS5003;43703;51.060;-0.086;2023-04-25T07:18:21;6;6;
57884;PMS5003;43703;51.060;-0.086;2023-04-25T07:20:47;7;6;
57884;PMS5003;43703;51.060;-0.086;2023-04-25T07:23:13;8;6;
57884;PMS5003;43703;51.060;-0.086;2023-04-25T07:25:39;4;3;
57884;PMS5003;43703;51.060;-0.086;2023-04-25T07:28:04;6;6;
57884;PMS5003;43703;51.060;-0.086;2023-04-25T07:30:30;5;4;
57884;PMS5003;43703;51.060;-0.086;2023-04-25T07:32:56;5;5;
57884;PMS5003;43703;51.060;-0.086;2023-04-25T07:35:22;7;5;
57884;PMS5003;43703;51.060;-0.086;2023-04-25T07:37:48;4;4;
57884;PMS5003;43703;51.060;-0.086;2023-04-25T07:40:14;6;4;
57884;PMS5003;43703;51.060;-0.086;2023-04-25T07:42:39;5;3;
57884;PMS5003;43703;51.060;-0.086;2023-04-25T07:45:06;6;4;
57884;PMS5003;43703;51.060;-0.086;2023-04-25T07:47:31;3;3;
57884;PMS5003;43703;51.060;-0.086;2023-04-25T07:49:57;4;4;
57884;PMS5003;43703;51.060;-0.086;2023-04-25T07:52:22;3;3;
57884;PMS5003;43703;51.060;-0.086;2023-04-25T07:54:48;3;3;
57884;PMS5003;43703;51.060;-0.086;2023-04-25T07:57:14;4;3;
57884;PMS5003;43703;51.060;-0.086;2023-04-25T07:59:40;3;2;
57884;PMS5003;43703;51.060;-0.086;2023-04-25T08:02:06;2;2;
57884;PMS5003;43703;51.060;-0.086;2023-04-25T08:04:31;3;3;
57884;PMS5003;43703;51.060;-0.086;2023-04-25T08:06:57;5;5;
57884;PMS5003;43703;51.060;-0.086;2023-04-25T08:09:23;3;3;
57884;PMS5003;43703;51.060;-0.086;2023-04-25T08:11:49;3;3;
57884;PMS5003;43703;51.060;-0.086;2023-04-25T08:14:14;3;3;
57884;PMS5003;43703;51.060;-0.086;2023-04-25T08:16:40;5;5;
57884;PMS5003;43703;51.060;-0.086;2023-04-25T08:19:06;7;5;
57884;PMS5003;43703;51.060;-0.086;2023-04-25T08:21:32;2;1;
57884;PMS5003;43703;51.060;-0.086;2023-04-25T08:23:57;3;3;
57884;PMS5003;43703;51.060;-0.086;2023-04-25T08:26:23;5;2;
57884;PMS5003;43703;51.060;-0.086;2023-04-25T08:28:49;6;4;
57884;PMS5003;43703;51.060;-0.086;2023-04-25T08:31:15;3;3;
57884;PMS5003;43703;51.060;-0.086;2023-04-25T08:33:41;2;2;
57884;PMS5003;43703;51.060;-0.086;2023-04-25T08:36:07;3;3;
57884;PMS5003;43703;51.060;-0.086;2023-04-25T08:38:32;4;3;
57884;PMS5003;43703;51.060;-0.086;2023-04-25T08:40:59;4;2;
57884;PMS5003;43703;51.060;-0.086;2023-04-25T08:43:24;5;3;
57884;PMS5003;43703;51.060;-0.086;2023-04-25T08:45:50;1;1;
57884;PMS5003;43703;51.060;-0.086;2023-04-25T08:48:16;4;4;
57884;PMS5003;43703;51.060;-0.086;2023-04-25T08:50:44;3;3;
57884;PMS5003;43703;51.060;-0.086;2023-04-25T08:53:08;6;4;
57884;PMS5003;43703;51.060;-0.086;2023-04-25T08:55:33;3;3;
57884;PMS5003;43703;51.060;-0.086;2023-04-25T08:57:59;4;4;
57884;PMS5003;43703;51.060;-0.086;2023-04-25T09:00:25;4;3;
57884;PMS5003;43703;51.060;-0.086;2023-04-25T09:02:51;1;1;
57884;PMS5003;43703;51.060;-0.086;2023-04-25T09:05:16;0;0;
57884;PMS5003;43703;51.060;-0.086;2023-04-25T09:07:42;3;3;
57884;PMS5003;43703;51.060;-0.086;2023-04-25T09:10:08;2;2;
57884;PMS5003;43703;51.060;-0.086;2023-04-25T09:12:34;2;2;
57884;PMS5003;43703;51.060;-0.086;2023-04-25T09:15:01;5;4;
57884;PMS5003;43703;51.060;-0.086;2023-04-25T09:17:25;5;3;
57884;PMS5003;43703;51.060;-0.086;2023-04-25T09:19:51;3;3;
57884;PMS5003;43703;51.060;-0.086;2023-04-25T09:22:17;7;5;
57884;PMS5003;43703;51.060;-0.086;2023-04-25T09:24:44;2;2;
57884;PMS5003;43703;51.060;-0.086;2023-04-25T09:27:09;3;2;
57884;PMS5003;43703;51.060;-0.086;2023-04-25T09:29:35;2;2;
57884;PMS5003;43703;51.060;-0.086;2023-04-25T09:34:26;5;3;
57884;PMS5003;43703;51.060;-0.086;2023-04-25T09:36:54;2;2;
57884;PMS5003;43703;51.060;-0.086;2023-04-25T09:39:18;5;5;
57884;PMS5003;43703;51.060;-0.086;2023-04-25T09:41:44;4;3;
